Portada
METAR-TAF:

METAR-TAF

Aeroports :

Tientsin, Xina

latitud: 39-11N, longitud: 117-21E, altitud: 3 m

Observació

L'informe es va fer fa 44 minuts, a les 20:00 UTC
Vent 4 kt del Est/Sud-Est
Temperatura 24°C
Humitat 89%
Pressió 1003 hPa
Visibilitat 10 km o més
sense núvols per sota de 1500 mi sense presència de cumulonimbus.

METAR: ZBTJ 192000Z 12002MPS CAVOK 24/22 Q1003 NOSIG

Hora: 04:44 (20:44 UTC)

Pronòstic

L'informe es va fer fa 5 hores i 55 minuts, a les 14:49 UTC
Pronòstic vàlid del 19 a les 18 UTC al 20 a les 18 UTC
Vent 6 kt del Sud-Est
Visibilitat: 3000 m
boirina
Temporalment
l' 20 a les 08 UTC al 20 a les 12 UTC
Núvols disperses a una alçada de 4000 ft, Cumulonimbus.
Cel ennuvolat a una alçada de 4000 ft
tempesta, pluja

TAF: ZBTJ 191449Z 1918/2018 14003MPS 3000 BR NSC TX33/2007Z TN25/1921Z TEMPO 2008/2012 -TSRA SCT040CB BKN040

Observacions i pronòstics meteorològics de més de 4000 aeroports (METAR i TAF).

Les estacions disponibles són els punts grocs i vermells al mapa.

Posi el ratolí al punt desitjat per veure el nom de l'estació.

Feu clic per veure les observacions i els pronòstics meteorològics.

Per canviar el mapa: feu clic els botons verds amb una creu de color negre per apropar; al botó verd amb un guió per allunyar la imatge; o en les fletxes verdes per a mapes adjacents.


METAR-TAF: